sensor_id;sensor_type;location;lat;lon;timestamp;P1;durP1;ratioP1;P2;durP2;ratioP2
47329;SDS011;33060;50.178;7.570;2022-11-04T00:00:10;1.50;;;1.20;;
47329;SDS011;33060;50.178;7.570;2022-11-04T00:02:37;1.35;;;1.10;;
47329;SDS011;33060;50.178;7.570;2022-11-04T00:05:04;1.60;;;1.35;;
47329;SDS011;33060;50.178;7.570;2022-11-04T00:07:31;2.40;;;1.50;;
47329;SDS011;33060;50.178;7.570;2022-11-04T00:10:16;3.33;;;1.85;;
47329;SDS011;33060;50.178;7.570;2022-11-04T00:12:42;2.60;;;1.70;;
47329;SDS011;33060;50.178;7.570;2022-11-04T00:15:09;2.38;;;1.70;;
47329;SDS011;33060;50.178;7.570;2022-11-04T00:17:59;2.20;;;1.95;;
47329;SDS011;33060;50.178;7.570;2022-11-04T00:20:25;4.95;;;1.90;;
47329;SDS011;33060;50.178;7.570;2022-11-04T00:23:10;3.80;;;2.00;;
47329;SDS011;33060;50.178;7.570;2022-11-04T00:25:55;2.00;;;1.67;;
47329;SDS011;33060;50.178;7.570;2022-11-04T00:28:40;2.60;;;1.83;;
47329;SDS011;33060;50.178;7.570;2022-11-04T00:31:10;2.43;;;1.80;;
47329;SDS011;33060;50.178;7.570;2022-11-04T00:33:56;5.00;;;2.13;;
47329;SDS011;33060;50.178;7.570;2022-11-04T00:36:23;2.05;;;1.60;;
47329;SDS011;33060;50.178;7.570;2022-11-04T00:38:51;1.80;;;1.40;;
47329;SDS011;33060;50.178;7.570;2022-11-04T00:41:18;2.55;;;2.03;;
47329;SDS011;33060;50.178;7.570;2022-11-04T00:43:53;3.38;;;1.83;;
47329;SDS011;33060;50.178;7.570;2022-11-04T00:46:24;2.80;;;2.08;;
47329;SDS011;33060;50.178;7.570;2022-11-04T00:48:52;2.70;;;2.20;;
47329;SDS011;33060;50.178;7.570;2022-11-04T00:51:19;2.53;;;2.00;;
47329;SDS011;33060;50.178;7.570;2022-11-04T00:53:47;3.28;;;1.92;;
47329;SDS011;33060;50.178;7.570;2022-11-04T00:56:14;2.83;;;1.90;;
47329;SDS011;33060;50.178;7.570;2022-11-04T00:58:40;2.60;;;1.88;;
47329;SDS011;33060;50.178;7.570;2022-11-04T01:01:11;2.63;;;2.28;;
47329;SDS011;33060;50.178;7.570;2022-11-04T01:03:43;2.40;;;1.90;;
47329;SDS011;33060;50.178;7.570;2022-11-04T01:06:11;3.15;;;1.98;;
47329;SDS011;33060;50.178;7.570;2022-11-04T01:08:37;2.45;;;1.65;;
47329;SDS011;33060;50.178;7.570;2022-11-04T01:11:04;3.17;;;1.83;;
47329;SDS011;33060;50.178;7.570;2022-11-04T01:13:33;2.28;;;1.70;;
47329;SDS011;33060;50.178;7.570;2022-11-04T01:16:01;2.75;;;1.50;;
47329;SDS011;33060;50.178;7.570;2022-11-04T01:18:30;2.42;;;1.50;;
47329;SDS011;33060;50.178;7.570;2022-11-04T01:21:01;4.20;;;1.90;;
47329;SDS011;33060;50.178;7.570;2022-11-04T01:23:29;2.97;;;1.70;;
47329;SDS011;33060;50.178;7.570;2022-11-04T01:25:55;2.33;;;1.60;;
47329;SDS011;33060;50.178;7.570;2022-11-04T01:28:22;2.78;;;1.73;;
47329;SDS011;33060;50.178;7.570;2022-11-04T01:30:49;3.60;;;1.47;;
47329;SDS011;33060;50.178;7.570;2022-11-04T01:33:15;2.30;;;1.47;;
47329;SDS011;33060;50.178;7.570;2022-11-04T01:35:42;2.15;;;1.40;;
47329;SDS011;33060;50.178;7.570;2022-11-04T01:38:09;2.40;;;1.50;;
47329;SDS011;33060;50.178;7.570;2022-11-04T01:40:37;2.42;;;1.38;;
47329;SDS011;33060;50.178;7.570;2022-11-04T01:43:14;2.22;;;1.42;;
47329;SDS011;33060;50.178;7.570;2022-11-04T01:45:43;1.65;;;1.20;;
47329;SDS011;33060;50.178;7.570;2022-11-04T01:48:21;2.60;;;1.37;;
47329;SDS011;33060;50.178;7.570;2022-11-04T01:50:52;3.17;;;1.40;;
47329;SDS011;33060;50.178;7.570;2022-11-04T01:53:27;1.90;;;1.30;;
47329;SDS011;33060;50.178;7.570;2022-11-04T01:55:58;2.63;;;1.40;;
47329;SDS011;33060;50.178;7.570;2022-11-04T01:58:28;2.72;;;1.20;;
47329;SDS011;33060;50.178;7.570;2022-11-04T02:00:59;2.80;;;1.45;;
47329;SDS011;33060;50.178;7.570;2022-11-04T02:03:31;4.00;;;1.33;;
47329;SDS011;33060;50.178;7.570;2022-11-04T02:06:00;2.93;;;1.57;;
47329;SDS011;33060;50.178;7.570;2022-11-04T02:08:28;3.23;;;1.27;;
47329;SDS011;33060;50.178;7.570;2022-11-04T02:10:57;5.60;;;1.50;;
47329;SDS011;33060;50.178;7.570;2022-11-04T02:13:26;1.73;;;1.10;;
47329;SDS011;33060;50.178;7.570;2022-11-04T02:29:51;2.73;;;1.10;;
47329;SDS011;33060;50.178;7.570;2022-11-04T02:35:04;3.30;;;1.25;;
47329;SDS011;33060;50.178;7.570;2022-11-04T02:37:46;3.80;;;1.60;;
47329;SDS011;33060;50.178;7.570;2022-11-04T02:45:50;3.43;;;1.43;;
47329;SDS011;33060;50.178;7.570;2022-11-04T02:48:45;5.22;;;1.30;;
47329;SDS011;33060;50.178;7.570;2022-11-04T02:51:16;5.40;;;1.33;;
47329;SDS011;33060;50.178;7.570;2022-11-04T02:53:59;4.50;;;1.50;;
47329;SDS011;33060;50.178;7.570;2022-11-04T02:56:33;3.90;;;1.70;;
47329;SDS011;33060;50.178;7.570;2022-11-04T02:59:46;6.37;;;1.73;;
47329;SDS011;33060;50.178;7.570;2022-11-04T03:01:57;3.57;;;1.50;;
47329;SDS011;33060;50.178;7.570;2022-11-04T03:04:27;2.45;;;1.35;;
47329;SDS011;33060;50.178;7.570;2022-11-04T03:06:58;5.83;;;1.30;;
47329;SDS011;33060;50.178;7.570;2022-11-04T03:09:28;4.80;;;1.70;;
47329;SDS011;33060;50.178;7.570;2022-11-04T03:12:00;6.13;;;1.77;;
47329;SDS011;33060;50.178;7.570;2022-11-04T03:14:41;5.40;;;1.80;;
47329;SDS011;33060;50.178;7.570;2022-11-04T03:17:26;3.88;;;1.60;;
47329;SDS011;33060;50.178;7.570;2022-11-04T03:20:12;7.40;;;1.60;;
47329;SDS011;33060;50.178;7.570;2022-11-04T03:22:44;5.83;;;1.70;;
47329;SDS011;33060;50.178;7.570;2022-11-04T03:25:11;5.03;;;1.60;;
47329;SDS011;33060;50.178;7.570;2022-11-04T03:30:17;4.10;;;2.00;;
47329;SDS011;33060;50.178;7.570;2022-11-04T03:35:13;5.40;;;1.60;;
47329;SDS011;33060;50.178;7.570;2022-11-04T03:37:42;4.77;;;1.43;;
47329;SDS011;33060;50.178;7.570;2022-11-04T03:40:10;5.13;;;1.73;;
47329;SDS011;33060;50.178;7.570;2022-11-04T03:42:39;6.63;;;1.70;;
47329;SDS011;33060;50.178;7.570;2022-11-04T03:45:28;4.10;;;1.30;;
47329;SDS011;33060;50.178;7.570;2022-11-04T03:47:55;7.77;;;1.90;;
47329;SDS011;33060;50.178;7.570;2022-11-04T03:50:27;4.88;;;1.75;;
47329;SDS011;33060;50.178;7.570;2022-11-04T03:52:58;4.27;;;1.43;;
47329;SDS011;33060;50.178;7.570;2022-11-04T03:55:36;6.63;;;1.60;;
47329;SDS011;33060;50.178;7.570;2022-11-04T04:01:07;4.37;;;1.27;;
47329;SDS011;33060;50.178;7.570;2022-11-04T04:03:39;4.80;;;1.67;;
47329;SDS011;33060;50.178;7.570;2022-11-04T04:06:17;5.33;;;1.50;;
47329;SDS011;33060;50.178;7.570;2022-11-04T04:08:58;6.13;;;1.50;;
47329;SDS011;33060;50.178;7.570;2022-11-04T04:11:51;8.67;;;1.80;;
47329;SDS011;33060;50.178;7.570;2022-11-04T04:14:27;8.00;;;1.90;;
47329;SDS011;33060;50.178;7.570;2022-11-04T04:19:57;7.03;;;1.80;;
47329;SDS011;33060;50.178;7.570;2022-11-04T04:22:39;5.90;;;1.80;;
47329;SDS011;33060;50.178;7.570;2022-11-04T04:25:09;4.40;;;1.70;;
47329;SDS011;33060;50.178;7.570;2022-11-04T04:27:56;4.27;;;1.77;;
47329;SDS011;33060;50.178;7.570;2022-11-04T04:30:24;6.73;;;1.80;;
47329;SDS011;33060;50.178;7.570;2022-11-04T04:32:52;5.73;;;1.80;;
47329;SDS011;33060;50.178;7.570;2022-11-04T04:35:27;6.37;;;1.80;;
47329;SDS011;33060;50.178;7.570;2022-11-04T04:38:13;4.50;;;1.80;;
47329;SDS011;33060;50.178;7.570;2022-11-04T04:41:19;6.67;;;1.70;;
47329;SDS011;33060;50.178;7.570;2022-11-04T04:44:12;3.67;;;1.20;;
47329;SDS011;33060;50.178;7.570;2022-11-04T04:47:18;6.40;;;1.63;;
47329;SDS011;33060;50.178;7.570;2022-11-04T04:49:52;5.23;;;1.60;;
47329;SDS011;33060;50.178;7.570;2022-11-04T04:52:21;5.83;;;1.50;;
47329;SDS011;33060;50.178;7.570;2022-11-04T04:54:49;7.10;;;1.47;;
47329;SDS011;33060;50.178;7.570;2022-11-04T04:57:16;4.87;;;1.80;;
47329;SDS011;33060;50.178;7.570;2022-11-04T04:59:42;5.50;;;1.57;;
47329;SDS011;33060;50.178;7.570;2022-11-04T05:02:09;4.03;;;1.47;;
47329;SDS011;33060;50.178;7.570;2022-11-04T05:04:36;3.53;;;1.70;;
47329;SDS011;33060;50.178;7.570;2022-11-04T05:07:02;4.03;;;1.47;;
47329;SDS011;33060;50.178;7.570;2022-11-04T05:09:29;4.40;;;1.50;;
47329;SDS011;33060;50.178;7.570;2022-11-04T05:11:56;5.33;;;1.37;;
47329;SDS011;33060;50.178;7.570;2022-11-04T05:14:23;4.17;;;1.70;;
47329;SDS011;33060;50.178;7.570;2022-11-04T05:16:49;5.83;;;1.90;;
47329;SDS011;33060;50.178;7.570;2022-11-04T05:19:16;5.77;;;1.53;;
47329;SDS011;33060;50.178;7.570;2022-11-04T05:21:42;4.47;;;1.40;;
47329;SDS011;33060;50.178;7.570;2022-11-04T05:24:09;5.43;;;1.53;;
47329;SDS011;33060;50.178;7.570;2022-11-04T05:26:36;4.43;;;1.63;;
47329;SDS011;33060;50.178;7.570;2022-11-04T05:29:02;7.70;;;1.63;;
47329;SDS011;33060;50.178;7.570;2022-11-04T05:31:29;3.33;;;1.50;;
47329;SDS011;33060;50.178;7.570;2022-11-04T05:33:56;9.17;;;3.53;;
47329;SDS011;33060;50.178;7.570;2022-11-04T05:36:24;10.30;;;4.20;;
47329;SDS011;33060;50.178;7.570;2022-11-04T05:38:52;6.27;;;3.40;;
47329;SDS011;33060;50.178;7.570;2022-11-04T05:41:20;5.57;;;2.20;;
47329;SDS011;33060;50.178;7.570;2022-11-04T05:43:54;6.57;;;3.23;;
47329;SDS011;33060;50.178;7.570;2022-11-04T05:46:22;4.30;;;1.93;;
47329;SDS011;33060;50.178;7.570;2022-11-04T05:48:49;4.57;;;1.70;;
47329;SDS011;33060;50.178;7.570;2022-11-04T05:51:18;4.73;;;1.67;;
47329;SDS011;33060;50.178;7.570;2022-11-04T05:53:46;4.43;;;1.47;;
47329;SDS011;33060;50.178;7.570;2022-11-04T05:56:13;4.73;;;1.60;;
47329;SDS011;33060;50.178;7.570;2022-11-04T05:58:40;4.03;;;1.30;;
47329;SDS011;33060;50.178;7.570;2022-11-04T06:04:08;7.77;;;1.70;;
47329;SDS011;33060;50.178;7.570;2022-11-04T06:06:40;7.30;;;1.70;;
47329;SDS011;33060;50.178;7.570;2022-11-04T06:09:07;3.93;;;1.50;;
47329;SDS011;33060;50.178;7.570;2022-11-04T06:11:34;10.00;;;1.80;;
47329;SDS011;33060;50.178;7.570;2022-11-04T06:14:02;4.50;;;1.40;;
47329;SDS011;33060;50.178;7.570;2022-11-04T06:16:29;5.93;;;1.50;;
47329;SDS011;33060;50.178;7.570;2022-11-04T06:18:56;4.83;;;1.73;;
47329;SDS011;33060;50.178;7.570;2022-11-04T06:21:31;3.37;;;1.60;;
47329;SDS011;33060;50.178;7.570;2022-11-04T06:23:58;6.53;;;1.80;;
47329;SDS011;33060;50.178;7.570;2022-11-04T06:26:26;5.87;;;1.80;;
47329;SDS011;33060;50.178;7.570;2022-11-04T06:28:54;6.03;;;1.60;;
47329;SDS011;33060;50.178;7.570;2022-11-04T06:31:21;4.73;;;1.80;;
47329;SDS011;33060;50.178;7.570;2022-11-04T06:33:48;5.40;;;2.00;;
47329;SDS011;33060;50.178;7.570;2022-11-04T06:36:15;4.67;;;1.80;;
47329;SDS011;33060;50.178;7.570;2022-11-04T06:38:42;7.23;;;2.50;;
47329;SDS011;33060;50.178;7.570;2022-11-04T06:41:10;3.87;;;1.70;;
47329;SDS011;33060;50.178;7.570;2022-11-04T06:43:38;5.87;;;2.03;;
47329;SDS011;33060;50.178;7.570;2022-11-04T06:46:06;3.77;;;1.80;;
47329;SDS011;33060;50.178;7.570;2022-11-04T06:48:51;5.53;;;2.17;;
47329;SDS011;33060;50.178;7.570;2022-11-04T06:51:18;7.13;;;2.20;;
47329;SDS011;33060;50.178;7.570;2022-11-04T06:53:44;4.53;;;1.90;;
47329;SDS011;33060;50.178;7.570;2022-11-04T06:56:11;4.00;;;2.13;;
47329;SDS011;33060;50.178;7.570;2022-11-04T06:58:38;6.97;;;2.50;;
47329;SDS011;33060;50.178;7.570;2022-11-04T07:01:04;6.23;;;2.70;;
47329;SDS011;33060;50.178;7.570;2022-11-04T07:03:39;5.70;;;3.10;;
47329;SDS011;33060;50.178;7.570;2022-11-04T07:06:07;4.93;;;2.80;;
47329;SDS011;33060;50.178;7.570;2022-11-04T07:08:34;6.23;;;2.93;;
47329;SDS011;33060;50.178;7.570;2022-11-04T07:11:01;5.53;;;2.33;;
47329;SDS011;33060;50.178;7.570;2022-11-04T07:13:28;8.43;;;2.77;;
47329;SDS011;33060;50.178;7.570;2022-11-04T07:15:55;4.27;;;2.60;;
47329;SDS011;33060;50.178;7.570;2022-11-04T07:18:22;5.13;;;2.80;;
47329;SDS011;33060;50.178;7.570;2022-11-04T07:20:49;6.07;;;2.70;;
47329;SDS011;33060;50.178;7.570;2022-11-04T07:23:15;6.40;;;2.93;;
47329;SDS011;33060;50.178;7.570;2022-11-04T07:25:42;6.83;;;2.80;;
47329;SDS011;33060;50.178;7.570;2022-11-04T07:28:09;7.13;;;2.60;;
47329;SDS011;33060;50.178;7.570;2022-11-04T07:30:36;4.87;;;2.63;;
47329;SDS011;33060;50.178;7.570;2022-11-04T07:33:02;4.83;;;2.63;;
47329;SDS011;33060;50.178;7.570;2022-11-04T07:35:29;6.93;;;2.43;;
47329;SDS011;33060;50.178;7.570;2022-11-04T07:37:56;6.43;;;2.53;;
47329;SDS011;33060;50.178;7.570;2022-11-04T07:40:22;6.60;;;2.70;;
47329;SDS011;33060;50.178;7.570;2022-11-04T07:42:49;5.63;;;2.77;;
47329;SDS011;33060;50.178;7.570;2022-11-04T07:45:16;6.77;;;2.40;;
47329;SDS011;33060;50.178;7.570;2022-11-04T07:47:43;4.63;;;2.60;;
47329;SDS011;33060;50.178;7.570;2022-11-04T07:50:10;5.60;;;2.17;;
47329;SDS011;33060;50.178;7.570;2022-11-04T07:52:37;6.47;;;2.23;;
47329;SDS011;33060;50.178;7.570;2022-11-04T07:55:04;5.90;;;2.20;;
47329;SDS011;33060;50.178;7.570;2022-11-04T07:57:31;4.80;;;2.80;;
47329;SDS011;33060;50.178;7.570;2022-11-04T07:59:57;7.13;;;2.73;;
47329;SDS011;33060;50.178;7.570;2022-11-04T08:02:24;5.00;;;2.30;;
47329;SDS011;33060;50.178;7.570;2022-11-04T08:04:59;7.87;;;2.83;;
47329;SDS011;33060;50.178;7.570;2022-11-04T08:07:25;5.13;;;2.70;;
47329;SDS011;33060;50.178;7.570;2022-11-04T08:09:52;5.35;;;2.70;;
47329;SDS011;33060;50.178;7.570;2022-11-04T08:12:19;6.40;;;2.70;;
47329;SDS011;33060;50.178;7.570;2022-11-04T08:14:47;6.88;;;2.53;;
47329;SDS011;33060;50.178;7.570;2022-11-04T08:17:13;5.22;;;2.53;;
47329;SDS011;33060;50.178;7.570;2022-11-04T08:19:40;5.78;;;2.35;;
47329;SDS011;33060;50.178;7.570;2022-11-04T08:22:07;5.82;;;2.80;;
47329;SDS011;33060;50.178;7.570;2022-11-04T08:24:34;6.65;;;2.85;;
47329;SDS011;33060;50.178;7.570;2022-11-04T08:27:01;7.18;;;2.95;;
47329;SDS011;33060;50.178;7.570;2022-11-04T08:29:29;5.15;;;2.90;;
47329;SDS011;33060;50.178;7.570;2022-11-04T08:31:56;4.43;;;3.30;;
47329;SDS011;33060;50.178;7.570;2022-11-04T08:34:23;5.82;;;2.60;;
47329;SDS011;33060;50.178;7.570;2022-11-04T08:36:49;5.50;;;2.72;;
47329;SDS011;33060;50.178;7.570;2022-11-04T08:39:18;6.65;;;3.05;;
47329;SDS011;33060;50.178;7.570;2022-11-04T08:41:45;7.03;;;3.17;;
47329;SDS011;33060;50.178;7.570;2022-11-04T08:44:11;5.38;;;3.08;;
47329;SDS011;33060;50.178;7.570;2022-11-04T08:46:39;6.25;;;3.40;;
47329;SDS011;33060;50.178;7.570;2022-11-04T08:49:07;6.22;;;2.97;;
47329;SDS011;33060;50.178;7.570;2022-11-04T08:51:39;5.72;;;2.88;;
47329;SDS011;33060;50.178;7.570;2022-11-04T08:54:08;5.28;;;3.20;;
47329;SDS011;33060;50.178;7.570;2022-11-04T08:56:36;6.32;;;3.72;;
47329;SDS011;33060;50.178;7.570;2022-11-04T08:59:06;5.15;;;3.42;;
47329;SDS011;33060;50.178;7.570;2022-11-04T09:01:34;6.80;;;3.80;;
47329;SDS011;33060;50.178;7.570;2022-11-04T09:04:02;5.28;;;3.33;;
47329;SDS011;33060;50.178;7.570;2022-11-04T09:06:31;5.85;;;4.18;;
47329;SDS011;33060;50.178;7.570;2022-11-04T09:09:02;7.55;;;4.20;;
47329;SDS011;33060;50.178;7.570;2022-11-04T09:11:30;6.70;;;4.38;;
47329;SDS011;33060;50.178;7.570;2022-11-04T09:13:59;9.90;;;4.60;;
47329;SDS011;33060;50.178;7.570;2022-11-04T09:16:27;7.63;;;4.07;;
47329;SDS011;33060;50.178;7.570;2022-11-04T09:18:55;7.38;;;3.90;;
47329;SDS011;33060;50.178;7.570;2022-11-04T09:21:23;10.00;;;3.38;;
47329;SDS011;33060;50.178;7.570;2022-11-04T09:23:51;3.90;;;2.97;;
47329;SDS011;33060;50.178;7.570;2022-11-04T09:26:17;6.90;;;3.28;;
47329;SDS011;33060;50.178;7.570;2022-11-04T09:28:44;5.35;;;3.00;;
47329;SDS011;33060;50.178;7.570;2022-11-04T09:31:15;4.85;;;2.97;;
47329;SDS011;33060;50.178;7.570;2022-11-04T09:33:43;5.00;;;2.80;;
47329;SDS011;33060;50.178;7.570;2022-11-04T09:36:11;5.90;;;3.10;;
47329;SDS011;33060;50.178;7.570;2022-11-04T09:38:40;6.47;;;2.95;;
47329;SDS011;33060;50.178;7.570;2022-11-04T09:44:22;3.72;;;2.55;;
47329;SDS011;33060;50.178;7.570;2022-11-04T09:46:57;6.07;;;3.10;;
47329;SDS011;33060;50.178;7.570;2022-11-04T09:49:29;4.82;;;2.47;;
47329;SDS011;33060;50.178;7.570;2022-11-04T09:52:02;4.22;;;2.33;;
47329;SDS011;33060;50.178;7.570;2022-11-04T09:54:37;3.50;;;1.80;;
47329;SDS011;33060;50.178;7.570;2022-11-04T09:57:15;3.67;;;1.90;;
47329;SDS011;33060;50.178;7.570;2022-11-04T09:59:43;3.47;;;1.60;;
47329;SDS011;33060;50.178;7.570;2022-11-04T10:10:49;3.72;;;2.20;;
47329;SDS011;33060;50.178;7.570;2022-11-04T10:27:11;5.60;;;3.05;;
47329;SDS011;33060;50.178;7.570;2022-11-04T10:29:43;5.07;;;2.53;;
47329;SDS011;33060;50.178;7.570;2022-11-04T10:32:16;5.00;;;2.13;;
47329;SDS011;33060;50.178;7.570;2022-11-04T10:34:51;5.53;;;2.05;;
47329;SDS011;33060;50.178;7.570;2022-11-04T10:37:22;2.28;;;1.58;;
47329;SDS011;33060;50.178;7.570;2022-11-04T10:39:51;2.97;;;2.10;;
47329;SDS011;33060;50.178;7.570;2022-11-04T10:42:26;5.43;;;3.05;;
47329;SDS011;33060;50.178;7.570;2022-11-04T10:44:53;3.03;;;2.00;;
47329;SDS011;33060;50.178;7.570;2022-11-04T10:50:03;5.60;;;2.10;;
47329;SDS011;33060;50.178;7.570;2022-11-04T10:53:08;7.28;;;3.22;;
47329;SDS011;33060;50.178;7.570;2022-11-04T10:55:46;3.88;;;1.95;;
47329;SDS011;33060;50.178;7.570;2022-11-04T10:58:23;3.28;;;1.90;;
47329;SDS011;33060;50.178;7.570;2022-11-04T11:00:52;3.03;;;1.77;;
47329;SDS011;33060;50.178;7.570;2022-11-04T11:03:32;4.63;;;2.00;;
47329;SDS011;33060;50.178;7.570;2022-11-04T11:06:10;4.68;;;2.08;;
47329;SDS011;33060;50.178;7.570;2022-11-04T11:08:51;5.68;;;2.70;;
47329;SDS011;33060;50.178;7.570;2022-11-04T11:19:47;2.47;;;1.60;;
47329;SDS011;33060;50.178;7.570;2022-11-04T11:22:36;4.25;;;2.20;;
47329;SDS011;33060;50.178;7.570;2022-11-04T11:25:11;4.00;;;1.70;;
47329;SDS011;33060;50.178;7.570;2022-11-04T11:27:50;4.10;;;1.70;;
47329;SDS011;33060;50.178;7.570;2022-11-04T11:30:24;3.95;;;1.77;;
47329;SDS011;33060;50.178;7.570;2022-11-04T11:33:00;3.95;;;1.58;;
47329;SDS011;33060;50.178;7.570;2022-11-04T11:35:33;3.80;;;1.95;;
47329;SDS011;33060;50.178;7.570;2022-11-04T11:38:14;3.42;;;2.22;;
47329;SDS011;33060;50.178;7.570;2022-11-04T11:40:44;3.42;;;1.63;;
47329;SDS011;33060;50.178;7.570;2022-11-04T11:43:33;4.82;;;1.70;;
47329;SDS011;33060;50.178;7.570;2022-11-04T11:46:01;4.18;;;1.88;;
47329;SDS011;33060;50.178;7.570;2022-11-04T11:48:34;2.75;;;1.45;;
47329;SDS011;33060;50.178;7.570;2022-11-04T11:51:04;4.25;;;1.40;;
47329;SDS011;33060;50.178;7.570;2022-11-04T11:53:32;2.88;;;1.20;;
47329;SDS011;33060;50.178;7.570;2022-11-04T11:56:05;3.17;;;1.35;;
47329;SDS011;33060;50.178;7.570;2022-11-04T11:58:57;3.60;;;1.80;;
47329;SDS011;33060;50.178;7.570;2022-11-04T12:02:19;4.95;;;1.60;;
47329;SDS011;33060;50.178;7.570;2022-11-04T12:04:51;3.88;;;1.50;;
47329;SDS011;33060;50.178;7.570;2022-11-04T12:16:07;1.88;;;1.27;;
47329;SDS011;33060;50.178;7.570;2022-11-04T12:21:32;3.10;;;1.40;;
47329;SDS011;33060;50.178;7.570;2022-11-04T12:29:49;4.20;;;2.15;;
47329;SDS011;33060;50.178;7.570;2022-11-04T12:35:24;9.50;;;6.53;;
47329;SDS011;33060;50.178;7.570;2022-11-04T12:44:20;3.00;;;1.58;;
47329;SDS011;33060;50.178;7.570;2022-11-04T12:47:08;5.25;;;3.17;;
47329;SDS011;33060;50.178;7.570;2022-11-04T12:54:53;1.50;;;0.88;;
47329;SDS011;33060;50.178;7.570;2022-11-04T13:00:29;1.67;;;1.13;;
47329;SDS011;33060;50.178;7.570;2022-11-04T13:03:01;3.30;;;1.10;;
47329;SDS011;33060;50.178;7.570;2022-11-04T13:05:53;2.53;;;1.30;;
47329;SDS011;33060;50.178;7.570;2022-11-04T13:08:27;2.33;;;1.30;;
47329;SDS011;33060;50.178;7.570;2022-11-04T13:11:09;2.47;;;1.25;;
47329;SDS011;33060;50.178;7.570;2022-11-04T13:13:55;2.65;;;1.23;;
47329;SDS011;33060;50.178;7.570;2022-11-04T13:16:41;2.80;;;1.27;;
47329;SDS011;33060;50.178;7.570;2022-11-04T13:19:28;3.95;;;3.22;;
47329;SDS011;33060;50.178;7.570;2022-11-04T13:22:01;3.45;;;1.52;;
47329;SDS011;33060;50.178;7.570;2022-11-04T13:24:32;2.08;;;1.10;;
47329;SDS011;33060;50.178;7.570;2022-11-04T13:27:08;2.47;;;1.60;;
47329;SDS011;33060;50.178;7.570;2022-11-04T13:29:44;2.47;;;1.30;;
47329;SDS011;33060;50.178;7.570;2022-11-04T13:32:20;2.03;;;1.60;;
47329;SDS011;33060;50.178;7.570;2022-11-04T13:34:59;3.17;;;1.45;;
47329;SDS011;33060;50.178;7.570;2022-11-04T13:40:12;3.47;;;1.60;;
47329;SDS011;33060;50.178;7.570;2022-11-04T13:45:53;3.72;;;2.63;;
47329;SDS011;33060;50.178;7.570;2022-11-04T13:48:22;5.10;;;3.25;;
47329;SDS011;33060;50.178;7.570;2022-11-04T13:53:39;3.15;;;1.67;;
47329;SDS011;33060;50.178;7.570;2022-11-04T13:56:06;2.65;;;1.27;;
47329;SDS011;33060;50.178;7.570;2022-11-04T13:58:53;3.80;;;1.45;;
47329;SDS011;33060;50.178;7.570;2022-11-04T14:06:55;5.70;;;1.38;;
47329;SDS011;33060;50.178;7.570;2022-11-04T14:14:36;3.40;;;1.50;;
47329;SDS011;33060;50.178;7.570;2022-11-04T14:17:04;3.80;;;2.55;;
47329;SDS011;33060;50.178;7.570;2022-11-04T14:23:00;3.13;;;1.65;;
47329;SDS011;33060;50.178;7.570;2022-11-04T14:25:36;2.72;;;1.80;;
47329;SDS011;33060;50.178;7.570;2022-11-04T14:33:04;3.53;;;1.63;;
47329;SDS011;33060;50.178;7.570;2022-11-04T14:35:34;4.85;;;1.75;;
47329;SDS011;33060;50.178;7.570;2022-11-04T14:38:04;3.78;;;2.50;;
47329;SDS011;33060;50.178;7.570;2022-11-04T14:40:47;4.93;;;4.20;;
47329;SDS011;33060;50.178;7.570;2022-11-04T14:43:39;7.65;;;6.03;;
47329;SDS011;33060;50.178;7.570;2022-11-04T14:46:10;5.13;;;2.67;;
47329;SDS011;33060;50.178;7.570;2022-11-04T14:48:44;5.45;;;4.00;;
47329;SDS011;33060;50.178;7.570;2022-11-04T14:51:21;2.65;;;2.08;;
47329;SDS011;33060;50.178;7.570;2022-11-04T14:56:44;2.30;;;1.63;;
47329;SDS011;33060;50.178;7.570;2022-11-04T14:59:25;10.55;;;7.15;;
47329;SDS011;33060;50.178;7.570;2022-11-04T15:01:53;4.53;;;3.72;;
47329;SDS011;33060;50.178;7.570;2022-11-04T15:04:24;4.80;;;2.30;;
47329;SDS011;33060;50.178;7.570;2022-11-04T15:06:53;3.90;;;1.77;;
47329;SDS011;33060;50.178;7.570;2022-11-04T15:09:29;5.85;;;2.45;;
47329;SDS011;33060;50.178;7.570;2022-11-04T15:14:58;4.63;;;2.05;;
47329;SDS011;33060;50.178;7.570;2022-11-04T15:17:27;4.47;;;3.42;;
47329;SDS011;33060;50.178;7.570;2022-11-04T15:19:58;5.30;;;4.30;;
47329;SDS011;33060;50.178;7.570;2022-11-04T15:22:27;2.83;;;2.20;;
47329;SDS011;33060;50.178;7.570;2022-11-04T15:24:55;4.10;;;2.63;;
47329;SDS011;33060;50.178;7.570;2022-11-04T15:27:28;5.03;;;2.95;;
47329;SDS011;33060;50.178;7.570;2022-11-04T15:30:02;5.57;;;3.10;;
47329;SDS011;33060;50.178;7.570;2022-11-04T15:32:31;6.82;;;3.95;;
47329;SDS011;33060;50.178;7.570;2022-11-04T15:34:57;7.35;;;4.00;;
47329;SDS011;33060;50.178;7.570;2022-11-04T15:37:25;5.57;;;2.22;;
47329;SDS011;33060;50.178;7.570;2022-11-04T15:39:55;4.30;;;1.70;;
47329;SDS011;33060;50.178;7.570;2022-11-04T15:42:23;5.32;;;1.90;;
47329;SDS011;33060;50.178;7.570;2022-11-04T15:47:47;13.63;;;8.32;;
47329;SDS011;33060;50.178;7.570;2022-11-04T15:50:24;13.13;;;7.70;;
47329;SDS011;33060;50.178;7.570;2022-11-04T15:52:54;41.55;;;22.25;;
47329;SDS011;33060;50.178;7.570;2022-11-04T15:55:21;9.00;;;5.05;;
47329;SDS011;33060;50.178;7.570;2022-11-04T15:57:51;9.82;;;5.97;;
47329;SDS011;33060;50.178;7.570;2022-11-04T16:00:21;7.30;;;5.22;;
47329;SDS011;33060;50.178;7.570;2022-11-04T16:02:50;8.98;;;6.43;;
47329;SDS011;33060;50.178;7.570;2022-11-04T16:07:51;7.78;;;5.75;;
47329;SDS011;33060;50.178;7.570;2022-11-04T16:12:57;6.28;;;4.70;;
47329;SDS011;33060;50.178;7.570;2022-11-04T16:15:45;5.55;;;3.63;;
47329;SDS011;33060;50.178;7.570;2022-11-04T16:21:10;6.18;;;3.70;;
47329;SDS011;33060;50.178;7.570;2022-11-04T16:23:46;9.55;;;5.68;;
47329;SDS011;33060;50.178;7.570;2022-11-04T16:26:21;15.70;;;11.75;;
47329;SDS011;33060;50.178;7.570;2022-11-04T16:28:52;19.05;;;12.23;;
47329;SDS011;33060;50.178;7.570;2022-11-04T16:31:28;22.42;;;16.02;;
47329;SDS011;33060;50.178;7.570;2022-11-04T16:33:58;21.10;;;15.80;;
47329;SDS011;33060;50.178;7.570;2022-11-04T16:36:25;17.50;;;13.23;;
47329;SDS011;33060;50.178;7.570;2022-11-04T16:39:01;14.80;;;11.98;;
47329;SDS011;33060;50.178;7.570;2022-11-04T16:41:31;12.82;;;10.52;;
47329;SDS011;33060;50.178;7.570;2022-11-04T16:44:03;7.70;;;6.03;;
47329;SDS011;33060;50.178;7.570;2022-11-04T16:46:31;7.63;;;4.97;;
47329;SDS011;33060;50.178;7.570;2022-11-04T16:48:59;6.57;;;4.75;;
47329;SDS011;33060;50.178;7.570;2022-11-04T16:51:25;10.82;;;7.10;;
47329;SDS011;33060;50.178;7.570;2022-11-04T16:53:53;15.18;;;10.38;;
47329;SDS011;33060;50.178;7.570;2022-11-04T16:56:21;4.88;;;2.90;;
47329;SDS011;33060;50.178;7.570;2022-11-04T16:58:50;4.97;;;2.72;;
47329;SDS011;33060;50.178;7.570;2022-11-04T17:01:18;7.90;;;3.88;;
47329;SDS011;33060;50.178;7.570;2022-11-04T17:03:46;6.03;;;4.20;;
47329;SDS011;33060;50.178;7.570;2022-11-04T17:06:13;4.88;;;3.08;;
47329;SDS011;33060;50.178;7.570;2022-11-04T17:08:41;4.45;;;2.67;;
47329;SDS011;33060;50.178;7.570;2022-11-04T17:11:09;5.40;;;2.90;;
47329;SDS011;33060;50.178;7.570;2022-11-04T17:13:36;4.85;;;2.55;;
47329;SDS011;33060;50.178;7.570;2022-11-04T17:16:08;4.25;;;2.70;;
47329;SDS011;33060;50.178;7.570;2022-11-04T17:18:38;2.97;;;2.15;;
47329;SDS011;33060;50.178;7.570;2022-11-04T17:21:05;6.43;;;2.42;;
47329;SDS011;33060;50.178;7.570;2022-11-04T17:23:33;5.90;;;2.35;;
47329;SDS011;33060;50.178;7.570;2022-11-04T17:26:00;5.18;;;2.50;;
47329;SDS011;33060;50.178;7.570;2022-11-04T17:28:27;3.30;;;2.20;;
47329;SDS011;33060;50.178;7.570;2022-11-04T17:30:53;3.70;;;2.40;;
47329;SDS011;33060;50.178;7.570;2022-11-04T17:33:20;3.22;;;2.42;;
47329;SDS011;33060;50.178;7.570;2022-11-04T17:35:47;5.30;;;2.20;;
47329;SDS011;33060;50.178;7.570;2022-11-04T17:38:17;4.05;;;2.50;;
47329;SDS011;33060;50.178;7.570;2022-11-04T17:40:44;3.00;;;2.10;;
47329;SDS011;33060;50.178;7.570;2022-11-04T17:43:29;4.45;;;2.40;;
47329;SDS011;33060;50.178;7.570;2022-11-04T17:46:15;4.55;;;2.75;;